sensor_id;sensor_type;location;lat;lon;timestamp;pressure;altitude;pressure_sealevel;temperature;humidity
49341;BME280;35209;51.050;13.678;2022-08-11T00:03:34;100756.25;;;17.99;51.77
49341;BME280;35209;51.050;13.678;2022-08-11T00:08:49;100760.88;;;17.95;51.57
49341;BME280;35209;51.050;13.678;2022-08-11T00:13:51;100750.78;;;18.02;52.27
49341;BME280;35209;51.050;13.678;2022-08-11T00:18:55;100754.81;;;17.74;52.67
49341;BME280;35209;51.050;13.678;2022-08-11T00:23:59;100759.28;;;17.74;52.34
49341;BME280;35209;51.050;13.678;2022-08-11T00:29:09;100772.78;;;17.69;52.45
49341;BME280;35209;51.050;13.678;2022-08-11T00:34:11;100778.84;;;17.54;53.23
49341;BME280;35209;51.050;13.678;2022-08-11T00:39:14;100763.59;;;17.57;53.72
49341;BME280;35209;51.050;13.678;2022-08-11T00:44:37;100774.16;;;17.78;53.09
49341;BME280;35209;51.050;13.678;2022-08-11T00:49:57;100769.56;;;17.62;53.17
49341;BME280;35209;51.050;13.678;2022-08-11T01:00:20;100779.94;;;17.31;54.19
49341;BME280;35209;51.050;13.678;2022-08-11T01:21:36;100781.63;;;16.96;54.97
49341;BME280;35209;51.050;13.678;2022-08-11T01:54:44;100768.59;;;16.50;57.31
49341;BME280;35209;51.050;13.678;2022-08-11T01:59:53;100768.47;;;16.53;56.87
49341;BME280;35209;51.050;13.678;2022-08-11T02:05:18;100763.91;;;16.36;57.78
49341;BME280;35209;51.050;13.678;2022-08-11T02:21:19;100761.00;;;16.02;57.91
49341;BME280;35209;51.050;13.678;2022-08-11T02:26:47;100763.25;;;16.11;58.28
49341;BME280;35209;51.050;13.678;2022-08-11T02:37:45;100762.84;;;16.00;58.62
49341;BME280;35209;51.050;13.678;2022-08-11T02:48:19;100765.94;;;15.89;59.27
49341;BME280;35209;51.050;13.678;2022-08-11T03:10:09;100782.03;;;15.64;59.75
49341;BME280;35209;51.050;13.678;2022-08-11T03:15:26;100794.88;;;15.51;59.97
49341;BME280;35209;51.050;13.678;2022-08-11T03:20:58;100791.72;;;15.63;60.08
49341;BME280;35209;51.050;13.678;2022-08-11T03:31:55;100797.78;;;15.45;60.65
49341;BME280;35209;51.050;13.678;2022-08-11T03:42:46;100787.94;;;15.25;61.26
49341;BME280;35209;51.050;13.678;2022-08-11T03:53:22;100783.91;;;15.38;61.35
49341;BME280;35209;51.050;13.678;2022-08-11T03:58:41;100783.47;;;15.27;61.98
49341;BME280;35209;51.050;13.678;2022-08-11T04:04:28;100771.25;;;15.01;61.85
49341;BME280;35209;51.050;13.678;2022-08-11T04:09:54;100772.13;;;15.00;62.90
49341;BME280;35209;51.050;13.678;2022-08-11T04:20:55;100775.69;;;15.23;62.24
49341;BME280;35209;51.050;13.678;2022-08-11T04:27:16;100766.16;;;15.41;62.05
49341;BME280;35209;51.050;13.678;2022-08-11T04:37:37;100778.31;;;15.46;61.29
49341;BME280;35209;51.050;13.678;2022-08-11T05:16:23;100774.19;;;16.24;59.67
49341;BME280;35209;51.050;13.678;2022-08-11T05:21:54;100774.75;;;16.71;57.50
49341;BME280;35209;51.050;13.678;2022-08-11T05:27:18;100790.41;;;16.77;57.59
49341;BME280;35209;51.050;13.678;2022-08-11T05:32:41;100786.66;;;17.02;56.68
49341;BME280;35209;51.050;13.678;2022-08-11T05:38:03;100796.94;;;17.09;56.33
49341;BME280;35209;51.050;13.678;2022-08-11T05:43:29;100801.25;;;17.48;55.30
49341;BME280;35209;51.050;13.678;2022-08-11T05:49:09;100790.03;;;17.79;54.96
49341;BME280;35209;51.050;13.678;2022-08-11T05:54:32;100790.22;;;18.11;53.38
49341;BME280;35209;51.050;13.678;2022-08-11T06:00:04;100787.03;;;18.55;52.13
49341;BME280;35209;51.050;13.678;2022-08-11T06:05:11;100798.22;;;18.79;51.69
49341;BME280;35209;51.050;13.678;2022-08-11T06:10:24;100802.50;;;19.14;50.57
49341;BME280;35209;51.050;13.678;2022-08-11T06:15:28;100800.22;;;20.02;48.85
49341;BME280;35209;51.050;13.678;2022-08-11T06:20:31;100799.03;;;20.36;47.28
49341;BME280;35209;51.050;13.678;2022-08-11T06:25:37;100800.16;;;21.19;46.05
49341;BME280;35209;51.050;13.678;2022-08-11T06:30:42;100805.94;;;21.54;44.97
49341;BME280;35209;51.050;13.678;2022-08-11T06:36:01;100796.94;;;22.22;43.03
49341;BME280;35209;51.050;13.678;2022-08-11T06:46:34;100806.75;;;23.12;41.45
49341;BME280;35209;51.050;13.678;2022-08-11T06:51:39;100807.38;;;23.53;40.49
49341;BME280;35209;51.050;13.678;2022-08-11T06:56:45;100807.75;;;23.72;40.19
49341;BME280;35209;51.050;13.678;2022-08-11T07:02:31;100821.13;;;23.85;39.53
49341;BME280;35209;51.050;13.678;2022-08-11T07:13:34;100803.81;;;24.24;38.77
49341;BME280;35209;51.050;13.678;2022-08-11T07:19:01;100804.81;;;24.34;38.79
49341;BME280;35209;51.050;13.678;2022-08-11T07:24:29;100804.22;;;24.31;38.73
49341;BME280;35209;51.050;13.678;2022-08-11T07:30:06;100799.69;;;24.89;37.59
49341;BME280;35209;51.050;13.678;2022-08-11T07:35:11;100801.13;;;25.38;36.37
49341;BME280;35209;51.050;13.678;2022-08-11T07:40:20;100799.09;;;25.08;37.57
49341;BME280;35209;51.050;13.678;2022-08-11T07:45:23;100790.25;;;25.28;37.12
49341;BME280;35209;51.050;13.678;2022-08-11T07:50:44;100787.31;;;25.31;36.61
49341;BME280;35209;51.050;13.678;2022-08-11T07:56:06;100791.41;;;25.58;35.95
49341;BME280;35209;51.050;13.678;2022-08-11T08:01:11;100785.00;;;26.02;35.32
49341;BME280;35209;51.050;13.678;2022-08-11T08:06:37;100782.09;;;25.94;35.94
49341;BME280;35209;51.050;13.678;2022-08-11T08:11:59;100779.13;;;26.08;35.57
49341;BME280;35209;51.050;13.678;2022-08-11T08:17:21;100776.09;;;26.23;35.16
49341;BME280;35209;51.050;13.678;2022-08-11T08:22:42;100770.19;;;26.50;34.72
49341;BME280;35209;51.050;13.678;2022-08-11T08:27:50;100759.00;;;26.54;34.48
49341;BME280;35209;51.050;13.678;2022-08-11T08:32:52;100764.09;;;27.09;32.91
49341;BME280;35209;51.050;13.678;2022-08-11T08:37:58;100751.59;;;27.17;33.01
49341;BME280;35209;51.050;13.678;2022-08-11T08:43:06;100751.66;;;27.37;32.52
49341;BME280;35209;51.050;13.678;2022-08-11T08:48:13;100748.13;;;27.36;32.19
49341;BME280;35209;51.050;13.678;2022-08-11T08:53:25;100745.53;;;26.85;33.02
49341;BME280;35209;51.050;13.678;2022-08-11T08:58:30;100744.22;;;26.49;33.44
49341;BME280;35209;51.050;13.678;2022-08-11T09:03:36;100727.72;;;26.00;34.13
49341;BME280;35209;51.050;13.678;2022-08-11T09:08:58;100733.13;;;26.00;34.03
49341;BME280;35209;51.050;13.678;2022-08-11T09:14:02;100728.53;;;26.12;34.37
49341;BME280;35209;51.050;13.678;2022-08-11T09:19:07;100728.69;;;26.41;33.17
49341;BME280;35209;51.050;13.678;2022-08-11T09:24:10;100717.75;;;25.91;33.96
49341;BME280;35209;51.050;13.678;2022-08-11T09:29:31;100726.94;;;26.09;32.14
49341;BME280;35209;51.050;13.678;2022-08-11T09:34:34;100719.66;;;25.68;33.01
49341;BME280;35209;51.050;13.678;2022-08-11T09:39:39;100713.28;;;25.69;32.89
49341;BME280;35209;51.050;13.678;2022-08-11T09:45:01;100715.19;;;26.62;31.86
49341;BME280;35209;51.050;13.678;2022-08-11T09:50:05;100706.59;;;26.47;31.93
49341;BME280;35209;51.050;13.678;2022-08-11T09:55:07;100708.53;;;27.06;32.06
49341;BME280;35209;51.050;13.678;2022-08-11T10:00:13;100707.94;;;27.72;30.72
49341;BME280;35209;51.050;13.678;2022-08-11T10:05:18;100703.09;;;27.95;30.37
49341;BME280;35209;51.050;13.678;2022-08-11T10:10:40;100698.16;;;28.28;30.18
49341;BME280;35209;51.050;13.678;2022-08-11T10:15:43;100699.97;;;27.90;30.94
49341;BME280;35209;51.050;13.678;2022-08-11T10:21:10;100691.16;;;29.09;28.96
49341;BME280;35209;51.050;13.678;2022-08-11T10:26:14;100684.63;;;28.75;28.92
49341;BME280;35209;51.050;13.678;2022-08-11T10:31:37;100681.03;;;28.00;28.86
49341;BME280;35209;51.050;13.678;2022-08-11T10:37:05;100688.56;;;27.48;29.83
49341;BME280;35209;51.050;13.678;2022-08-11T10:42:16;100685.31;;;27.83;30.07
49341;BME280;35209;51.050;13.678;2022-08-11T10:47:58;100669.41;;;28.36;29.13
49341;BME280;35209;51.050;13.678;2022-08-11T10:53:01;100660.28;;;28.75;26.96
49341;BME280;35209;51.050;13.678;2022-08-11T10:58:23;100657.56;;;28.47;28.35
49341;BME280;35209;51.050;13.678;2022-08-11T11:03:44;100654.03;;;29.37;26.79
49341;BME280;35209;51.050;13.678;2022-08-11T11:08:47;100646.75;;;29.20;26.28
49341;BME280;35209;51.050;13.678;2022-08-11T11:14:02;100650.28;;;29.03;26.83
49341;BME280;35209;51.050;13.678;2022-08-11T11:19:28;100649.84;;;29.43;25.86
49341;BME280;35209;51.050;13.678;2022-08-11T11:24:44;100633.13;;;29.65;25.61
49341;BME280;35209;51.050;13.678;2022-08-11T11:30:05;100631.84;;;30.22;25.77
49341;BME280;35209;51.050;13.678;2022-08-11T11:35:25;100619.56;;;29.65;24.72
49341;BME280;35209;51.050;13.678;2022-08-11T11:40:32;100614.97;;;30.44;24.63
49341;BME280;35209;51.050;13.678;2022-08-11T11:45:34;100619.28;;;30.55;23.62
49341;BME280;35209;51.050;13.678;2022-08-11T11:50:36;100608.56;;;30.53;23.13
49341;BME280;35209;51.050;13.678;2022-08-11T11:55:39;100612.00;;;30.55;23.38
49341;BME280;35209;51.050;13.678;2022-08-11T12:00:42;100606.56;;;30.55;23.49
49341;BME280;35209;51.050;13.678;2022-08-11T12:06:03;100603.38;;;30.00;23.28
49341;BME280;35209;51.050;13.678;2022-08-11T12:11:10;100594.53;;;30.24;22.86
49341;BME280;35209;51.050;13.678;2022-08-11T12:16:33;100596.31;;;30.33;22.83
49341;BME280;35209;51.050;13.678;2022-08-11T12:21:38;100586.63;;;30.30;22.59
49341;BME280;35209;51.050;13.678;2022-08-11T12:27:02;100587.19;;;30.50;21.93
49341;BME280;35209;51.050;13.678;2022-08-11T12:32:39;100573.38;;;29.93;22.06
49341;BME280;35209;51.050;13.678;2022-08-11T12:37:46;100573.22;;;29.69;22.38
49341;BME280;35209;51.050;13.678;2022-08-11T12:42:49;100573.50;;;29.91;21.47
49341;BME280;35209;51.050;13.678;2022-08-11T12:48:47;100576.25;;;28.94;22.60
49341;BME280;35209;51.050;13.678;2022-08-11T12:54:15;100555.00;;;29.17;22.25
49341;BME280;35209;51.050;13.678;2022-08-11T12:59:18;100562.34;;;29.25;22.61
49341;BME280;35209;51.050;13.678;2022-08-11T13:04:41;100550.41;;;29.53;22.54
49341;BME280;35209;51.050;13.678;2022-08-11T13:10:03;100538.97;;;29.41;22.61
49341;BME280;35209;51.050;13.678;2022-08-11T13:15:14;100528.78;;;29.35;22.92
49341;BME280;35209;51.050;13.678;2022-08-11T13:20:20;100540.88;;;29.67;21.73
49341;BME280;35209;51.050;13.678;2022-08-11T13:25:24;100523.47;;;29.08;23.08
49341;BME280;35209;51.050;13.678;2022-08-11T13:30:29;100528.56;;;28.93;22.34
49341;BME280;35209;51.050;13.678;2022-08-11T13:35:52;100520.44;;;29.11;22.52
49341;BME280;35209;51.050;13.678;2022-08-11T13:40:55;100521.59;;;29.08;22.73
49341;BME280;35209;51.050;13.678;2022-08-11T13:45:57;100515.03;;;28.93;23.04
49341;BME280;35209;51.050;13.678;2022-08-11T13:51:19;100498.97;;;29.09;22.39
49341;BME280;35209;51.050;13.678;2022-08-11T13:56:37;100497.72;;;29.04;22.89
49341;BME280;35209;51.050;13.678;2022-08-11T14:01:44;100503.56;;;29.17;22.65
49341;BME280;35209;51.050;13.678;2022-08-11T14:07:09;100488.59;;;28.87;23.70
49341;BME280;35209;51.050;13.678;2022-08-11T14:12:14;100486.78;;;28.42;24.54
49341;BME280;35209;51.050;13.678;2022-08-11T14:17:38;100485.44;;;28.56;24.13
49341;BME280;35209;51.050;13.678;2022-08-11T14:22:50;100483.25;;;28.41;24.19
49341;BME280;35209;51.050;13.678;2022-08-11T14:27:53;100484.13;;;28.60;24.32
49341;BME280;35209;51.050;13.678;2022-08-11T14:33:16;100474.00;;;28.44;24.62
49341;BME280;35209;51.050;13.678;2022-08-11T14:38:21;100467.56;;;28.63;25.01
49341;BME280;35209;51.050;13.678;2022-08-11T14:43:24;100468.19;;;28.39;25.44
49341;BME280;35209;51.050;13.678;2022-08-11T14:49:05;100465.66;;;28.28;25.64
49341;BME280;35209;51.050;13.678;2022-08-11T14:54:08;100465.91;;;28.34;26.08
49341;BME280;35209;51.050;13.678;2022-08-11T14:59:29;100458.53;;;28.36;26.07
49341;BME280;35209;51.050;13.678;2022-08-11T15:04:31;100459.88;;;28.23;25.66
49341;BME280;35209;51.050;13.678;2022-08-11T15:09:40;100456.47;;;28.48;25.73
49341;BME280;35209;51.050;13.678;2022-08-11T15:15:05;100453.00;;;28.28;25.59
49341;BME280;35209;51.050;13.678;2022-08-11T15:20:27;100438.84;;;27.99;25.97
49341;BME280;35209;51.050;13.678;2022-08-11T15:26:09;100438.97;;;27.97;25.97
49341;BME280;35209;51.050;13.678;2022-08-11T15:31:13;100436.78;;;27.83;25.85
49341;BME280;35209;51.050;13.678;2022-08-11T15:36:54;100439.47;;;27.83;26.05
49341;BME280;35209;51.050;13.678;2022-08-11T15:42:16;100429.91;;;27.88;25.90
49341;BME280;35209;51.050;13.678;2022-08-11T15:47:40;100433.88;;;27.94;25.94
49341;BME280;35209;51.050;13.678;2022-08-11T15:52:48;100430.34;;;27.94;25.84
49341;BME280;35209;51.050;13.678;2022-08-11T15:57:54;100424.09;;;29.26;24.58
49341;BME280;35209;51.050;13.678;2022-08-11T16:03:17;100426.56;;;29.11;25.04
49341;BME280;35209;51.050;13.678;2022-08-11T16:09:02;100426.06;;;28.72;24.75
49341;BME280;35209;51.050;13.678;2022-08-11T16:14:19;100427.88;;;28.00;25.52
49341;BME280;35209;51.050;13.678;2022-08-11T16:19:43;100426.44;;;27.41;26.21
49341;BME280;35209;51.050;13.678;2022-08-11T16:24:47;100420.25;;;27.49;25.88
49341;BME280;35209;51.050;13.678;2022-08-11T16:30:10;100419.63;;;27.37;26.74
49341;BME280;35209;51.050;13.678;2022-08-11T16:35:15;100412.41;;;27.18;26.74
49341;BME280;35209;51.050;13.678;2022-08-11T16:40:38;100397.09;;;26.99;27.18
49341;BME280;35209;51.050;13.678;2022-08-11T16:45:41;100411.00;;;27.04;26.98
49341;BME280;35209;51.050;13.678;2022-08-11T16:51:04;100412.44;;;26.99;27.22
49341;BME280;35209;51.050;13.678;2022-08-11T16:56:06;100411.31;;;27.01;27.54
49341;BME280;35209;51.050;13.678;2022-08-11T17:01:10;100408.22;;;26.96;27.26
49341;BME280;35209;51.050;13.678;2022-08-11T17:06:13;100416.69;;;26.91;27.69
49341;BME280;35209;51.050;13.678;2022-08-11T17:11:49;100406.25;;;26.79;27.93
49341;BME280;35209;51.050;13.678;2022-08-11T17:17:15;100413.34;;;26.70;28.15
49341;BME280;35209;51.050;13.678;2022-08-11T17:22:19;100417.31;;;26.76;28.53
49341;BME280;35209;51.050;13.678;2022-08-11T17:27:41;100412.47;;;26.60;28.67
49341;BME280;35209;51.050;13.678;2022-08-11T17:32:48;100414.50;;;26.48;28.46
49341;BME280;35209;51.050;13.678;2022-08-11T17:38:13;100409.63;;;26.42;28.96
49341;BME280;35209;51.050;13.678;2022-08-11T17:43:16;100410.88;;;26.19;29.15
49341;BME280;35209;51.050;13.678;2022-08-11T17:48:37;100414.16;;;26.12;28.96
49341;BME280;35209;51.050;13.678;2022-08-11T17:53:48;100417.81;;;26.11;29.21
49341;BME280;35209;51.050;13.678;2022-08-11T17:59:25;100421.66;;;25.99;29.74
49341;BME280;35209;51.050;13.678;2022-08-11T18:04:50;100421.47;;;25.91;29.42
49341;BME280;35209;51.050;13.678;2022-08-11T18:09:53;100420.75;;;25.89;29.46
49341;BME280;35209;51.050;13.678;2022-08-11T18:15:13;100436.38;;;25.64;29.88
49341;BME280;35209;51.050;13.678;2022-08-11T18:20:35;100440.63;;;25.36;30.22
49341;BME280;35209;51.050;13.678;2022-08-11T18:25:57;100442.81;;;25.22;30.29
49341;BME280;35209;51.050;13.678;2022-08-11T18:31:20;100448.84;;;25.14;30.47
49341;BME280;35209;51.050;13.678;2022-08-11T18:36:45;100442.94;;;24.99;30.92
49341;BME280;35209;51.050;13.678;2022-08-11T18:42:12;100447.84;;;24.73;31.14
49341;BME280;35209;51.050;13.678;2022-08-11T18:47:35;100454.78;;;24.44;31.88
49341;BME280;35209;51.050;13.678;2022-08-11T18:52:58;100459.63;;;24.17;32.27
49341;BME280;35209;51.050;13.678;2022-08-11T18:58:22;100462.19;;;24.08;33.43
49341;BME280;35209;51.050;13.678;2022-08-11T19:03:44;100457.31;;;23.90;33.93
49341;BME280;35209;51.050;13.678;2022-08-11T19:09:18;100444.75;;;23.46;34.73
49341;BME280;35209;51.050;13.678;2022-08-11T19:14:39;100449.09;;;23.13;35.35
49341;BME280;35209;51.050;13.678;2022-08-11T19:20:06;100453.56;;;22.90;35.60
49341;BME280;35209;51.050;13.678;2022-08-11T19:25:29;100454.41;;;22.91;36.43
49341;BME280;35209;51.050;13.678;2022-08-11T19:30:52;100459.56;;;22.94;36.39
49341;BME280;35209;51.050;13.678;2022-08-11T19:36:14;100463.03;;;22.59;36.99
49341;BME280;35209;51.050;13.678;2022-08-11T19:41:36;100463.84;;;22.25;37.45
49341;BME280;35209;51.050;13.678;2022-08-11T19:46:59;100463.78;;;22.01;37.67
49341;BME280;35209;51.050;13.678;2022-08-11T19:52:21;100471.19;;;21.97;37.89
49341;BME280;35209;51.050;13.678;2022-08-11T19:57:43;100471.84;;;21.88;38.34
49341;BME280;35209;51.050;13.678;2022-08-11T20:03:09;100474.81;;;21.96;38.42
49341;BME280;35209;51.050;13.678;2022-08-11T20:08:30;100479.44;;;21.81;38.89
49341;BME280;35209;51.050;13.678;2022-08-11T20:13:59;100487.28;;;21.46;39.28
49341;BME280;35209;51.050;13.678;2022-08-11T20:19:21;100494.56;;;21.31;39.58
49341;BME280;35209;51.050;13.678;2022-08-11T20:24:57;100487.88;;;21.11;40.13
49341;BME280;35209;51.050;13.678;2022-08-11T20:30:17;100493.78;;;21.16;40.07
49341;BME280;35209;51.050;13.678;2022-08-11T20:35:38;100480.47;;;20.89;40.25
49341;BME280;35209;51.050;13.678;2022-08-11T20:40:59;100487.88;;;20.99;40.34
49341;BME280;35209;51.050;13.678;2022-08-11T20:46:21;100484.97;;;21.02;40.30
49341;BME280;35209;51.050;13.678;2022-08-11T20:51:42;100489.16;;;20.66;41.21
49341;BME280;35209;51.050;13.678;2022-08-11T20:57:09;100494.38;;;20.55;41.38
49341;BME280;35209;51.050;13.678;2022-08-11T21:02:50;100506.47;;;20.46;41.47
49341;BME280;35209;51.050;13.678;2022-08-11T21:08:13;100497.19;;;20.25;41.99
49341;BME280;35209;51.050;13.678;2022-08-11T21:13:38;100503.28;;;20.27;41.91
49341;BME280;35209;51.050;13.678;2022-08-11T21:19:05;100493.00;;;20.21;42.35
49341;BME280;35209;51.050;13.678;2022-08-11T21:24:50;100498.47;;;20.05;42.54
49341;BME280;35209;51.050;13.678;2022-08-11T21:30:11;100504.50;;;19.94;43.31
49341;BME280;35209;51.050;13.678;2022-08-11T21:35:32;100506.59;;;19.89;43.25
49341;BME280;35209;51.050;13.678;2022-08-11T21:40:53;100518.59;;;19.68;43.32
49341;BME280;35209;51.050;13.678;2022-08-11T21:46:14;100524.88;;;19.67;43.68
49341;BME280;35209;51.050;13.678;2022-08-11T21:51:37;100517.78;;;19.51;43.97
49341;BME280;35209;51.050;13.678;2022-08-11T21:56:58;100517.94;;;19.20;44.88
49341;BME280;35209;51.050;13.678;2022-08-11T22:02:19;100529.03;;;19.12;45.01
49341;BME280;35209;51.050;13.678;2022-08-11T22:07:40;100525.34;;;19.14;44.97
49341;BME280;35209;51.050;13.678;2022-08-11T22:13:01;100528.38;;;19.08;45.34
49341;BME280;35209;51.050;13.678;2022-08-11T22:18:22;100518.28;;;18.99;45.71
49341;BME280;35209;51.050;13.678;2022-08-11T22:23:44;100515.06;;;18.78;46.54
49341;BME280;35209;51.050;13.678;2022-08-11T22:29:11;100507.75;;;18.82;46.42
49341;BME280;35209;51.050;13.678;2022-08-11T22:34:51;100511.88;;;18.72;46.73
49341;BME280;35209;51.050;13.678;2022-08-11T22:40:13;100528.66;;;18.42;47.32
49341;BME280;35209;51.050;13.678;2022-08-11T22:45:33;100516.69;;;18.49;47.79
49341;BME280;35209;51.050;13.678;2022-08-11T22:50:54;100519.44;;;18.32;47.77
49341;BME280;35209;51.050;13.678;2022-08-11T22:56:17;100528.88;;;18.06;47.97
49341;BME280;35209;51.050;13.678;2022-08-11T23:01:38;100535.56;;;18.13;48.58
49341;BME280;35209;51.050;13.678;2022-08-11T23:07:00;100530.75;;;18.04;48.33
49341;BME280;35209;51.050;13.678;2022-08-11T23:12:42;100523.38;;;18.09;48.33
49341;BME280;35209;51.050;13.678;2022-08-11T23:18:03;100527.31;;;17.86;48.89
49341;BME280;35209;51.050;13.678;2022-08-11T23:23:27;100542.56;;;17.82;49.00
49341;BME280;35209;51.050;13.678;2022-08-11T23:28:48;100530.97;;;17.83;49.65
49341;BME280;35209;51.050;13.678;2022-08-11T23:34:17;100534.34;;;17.87;49.11
49341;BME280;35209;51.050;13.678;2022-08-11T23:39:57;100529.59;;;17.76;49.50
49341;BME280;35209;51.050;13.678;2022-08-11T23:45:20;100537.59;;;17.42;50.20
49341;BME280;35209;51.050;13.678;2022-08-11T23:50:42;100524.34;;;17.57;49.98
49341;BME280;35209;51.050;13.678;2022-08-11T23:56:03;100523.09;;;17.31;50.14
